Terminal Aerodrome Forecast
Issued by NWS Tallahassee, FL

Home | Current Version | Previous Version | Text Only | Print | Product List | Glossary On
Versions: 1 2 3 4 5 6 7 8 9 10 11 12
000
FTUS42 KTAE 041720
TAFTLH
TAF
KTLH 041720Z 0418/0518 17010G20KT P6SM BKN025
     FM050000 15005KT P6SM -RA OVC015
      TEMPO 0501/0503 3SM +RA OVC009
     FM050800 16004KT 2SM -RA BR OVC007
     FM051300 15007KT P6SM -RA OVC007=

USA.gov is the U.S. government's official web portal to all federal, state and local government web resources and services.